Phillips, Wisconsin
Current Conditions -  °F | °C
As of 6:15 PM on Friday 24 Oct 2014 (Local Time) from KPBH Reporting Station
Overcast Overcast  
Wind Chill: 13°   Ceiling: 1800
Heat Index: 13°   Visibility: 10mi
Dew Point: 10°   Wind: 9mph
Humidity: 78%   Direction: 190°S
Pressure: 29.84"   Gusts: NA
Location:  45.69°N, 90.41°W
Report Text: KPBH 242315Z AUTO 19008KT 10SM OVC018 13/10 A2984 RMK AO2 T01320095
Loading
Personal Weather Stations






























Interactive Weather Map
Tropical Storm Tracking
New forecast layout! Learn more

10-Day Weather Forecast

Advertisements
Track Severe Weather on mobile